Terminal Aerodrome Forecast
Issued by NWS St Louis, MO

Home | Current Version | Previous Version | Text Only | Print | Product List | Glossary On
Versions: 1 2 3 4 5 6 7 8 9 10 11 12 13 14 15 16
846
FTUS43 KLSX 282330
TAFCOU
TAF
KCOU 282330Z 2900/2924 35005KT P6SM BKN050
     FM290200 35005KT P6SM SCT050
     FM291600 35009KT P6SM FEW050
     FM292100 35011G17KT P6SM FEW050=

USA.gov is the U.S. government's official web portal to all federal, state and local government web resources and services.